< < Back
Terminal Aerodrome Forecast


Current Version              Previous Versions:   1  2  3  4  5  6  7  8  9  

Terminal Aerodrome Forecast

828
FTUS42 KJAX 222300
TAFSSI
TAF
KSSI 222324Z 2300/2324 26008KT P6SM BKN060
     FM230200 26007KT P6SM VCSH BKN050 BKN100
     FM230600 26006KT P6SM SCT009 SCT060
     FM231300 29008KT P6SM SCT080
     FM231700 11009KT P6SM SKC=

Latest METAR

212
SAUS70 KWBC 231400
MTRSSI
METAR KSSI 231353Z AUTO VRB06KT 10SM CLR 22/17 A2991 RMK AO2 SLP127
T02220167 PWINO $


USA.gov is the U.S. government's official web portal to all federal, state and local government web resources and services.